createdAt,value
2022-07-25T00:00:51.217Z,20.61
2022-07-25T00:03:56.601Z,20.55
2022-07-25T00:07:00.657Z,20.56
2022-07-25T00:10:06.275Z,20.54
2022-07-25T00:13:13.408Z,20.63
2022-07-25T00:16:18.153Z,20.65
2022-07-25T00:19:22.292Z,20.79
2022-07-25T00:22:25.940Z,20.81
2022-07-25T00:25:29.958Z,20.69
2022-07-25T00:28:35.496Z,20.67
2022-07-25T00:31:39.846Z,20.64
2022-07-25T00:34:43.128Z,20.66
2022-07-25T00:37:46.075Z,20.75
2022-07-25T00:40:55.668Z,20.70
2022-07-25T00:44:01.036Z,20.55
2022-07-25T00:47:04.204Z,20.33
2022-07-25T00:50:07.952Z,20.34
2022-07-25T00:53:14.371Z,20.31
2022-07-25T00:56:20.071Z,20.32
2022-07-25T00:59:28.887Z,20.33
2022-07-25T01:02:32.093Z,20.28
2022-07-25T01:05:35.681Z,20.29
2022-07-25T01:08:39.750Z,20.24
2022-07-25T01:11:43.261Z,20.16
2022-07-25T01:14:46.210Z,20.09
2022-07-25T01:17:51.248Z,20.10
2022-07-25T01:20:53.891Z,20.05
2022-07-25T01:23:56.971Z,19.95
2022-07-25T01:27:00.769Z,19.89
2022-07-25T01:30:09.218Z,19.91
2022-07-25T01:33:17.433Z,19.91
2022-07-25T01:36:20.688Z,19.90
2022-07-25T01:39:23.478Z,19.93
2022-07-25T01:42:28.635Z,19.93
2022-07-25T01:45:33.014Z,19.94
2022-07-25T01:48:37.159Z,20.00
2022-07-25T01:51:43.061Z,19.89
2022-07-25T01:54:47.363Z,19.74
2022-07-25T01:57:52.258Z,19.78
2022-07-25T02:00:56.680Z,19.83
2022-07-25T02:04:04.691Z,19.94
2022-07-25T02:07:09.244Z,19.94
2022-07-25T02:10:13.856Z,19.93
2022-07-25T02:13:16.795Z,19.93
2022-07-25T02:16:29.212Z,19.88
2022-07-25T02:19:32.588Z,19.87
2022-07-25T02:22:36.883Z,19.87
2022-07-25T02:25:39.863Z,19.89
2022-07-25T02:28:44.460Z,19.79
2022-07-25T02:31:50.963Z,19.70
2022-07-25T02:34:54.761Z,19.67
2022-07-25T02:37:58.477Z,19.65
2022-07-25T02:41:02.512Z,19.53
2022-07-25T02:44:08.098Z,19.52
2022-07-25T02:47:16.367Z,19.45
2022-07-25T02:50:20.963Z,19.46
2022-07-25T02:53:47.074Z,19.50
2022-07-25T02:56:50.035Z,19.49
2022-07-25T02:59:53.451Z,19.51
2022-07-25T03:02:58.772Z,19.55
2022-07-25T03:06:02.491Z,19.63
2022-07-25T03:09:06.476Z,19.65
2022-07-25T03:12:11.277Z,19.62
2022-07-25T03:15:14.685Z,19.62
2022-07-25T03:18:17.875Z,19.58
2022-07-25T03:21:21.336Z,19.59
2022-07-25T03:24:25.015Z,19.59
2022-07-25T03:27:28.204Z,19.65
2022-07-25T03:30:32.148Z,19.62
2022-07-25T03:33:35.772Z,19.35
2022-07-25T03:36:39.139Z,19.55
2022-07-25T03:39:42.756Z,19.48
2022-07-25T03:42:46.002Z,19.48
2022-07-25T03:45:49.661Z,19.39
2022-07-25T03:48:53.365Z,19.33
2022-07-25T03:51:57.056Z,19.35
2022-07-25T03:55:01.487Z,19.31
2022-07-25T03:58:04.831Z,19.37
2022-07-25T04:01:08.680Z,19.42
2022-07-25T04:04:19.491Z,19.43
2022-07-25T04:07:24.679Z,19.37
2022-07-25T04:10:29.174Z,19.23
2022-07-25T04:13:33.448Z,19.48
2022-07-25T04:16:39.352Z,19.51
2022-07-25T04:19:49.562Z,19.55
2022-07-25T04:22:53.352Z,19.35
2022-07-25T04:26:00.478Z,19.56
2022-07-25T04:29:18.932Z,19.57
2022-07-25T04:32:28.570Z,19.56
2022-07-25T04:35:32.235Z,19.57
2022-07-25T04:38:38.897Z,19.65
2022-07-25T04:41:42.354Z,19.76
2022-07-25T04:44:50.331Z,20.00
2022-07-25T04:47:56.935Z,20.17
2022-07-25T04:51:05.217Z,20.28
2022-07-25T04:54:14.675Z,20.40
2022-07-25T04:57:19.360Z,20.18
2022-07-25T05:00:27.963Z,20.15
2022-07-25T05:03:35.106Z,20.61
2022-07-25T05:06:58.322Z,20.78
2022-07-25T05:10:02.219Z,20.23
2022-07-25T05:16:51.745Z,21.02
2022-07-25T05:19:58.949Z,21.24
2022-07-25T05:23:11.008Z,21.37
2022-07-25T05:30:25.620Z,21.72
2022-07-25T05:33:32.817Z,21.93
2022-07-25T05:36:45.474Z,21.91
2022-07-25T05:40:16.291Z,22.08
2022-07-25T05:43:40.530Z,22.34
2022-07-25T05:46:45.196Z,22.33
2022-07-25T05:49:51.918Z,22.39
2022-07-25T05:52:59.380Z,22.58
2022-07-25T05:56:15.969Z,22.91
2022-07-25T05:59:19.800Z,22.78
2022-07-25T06:02:23.281Z,23.17
2022-07-25T06:05:26.971Z,23.36
2022-07-25T06:08:31.187Z,23.45
2022-07-25T06:11:34.336Z,23.69
2022-07-25T06:14:39.919Z,23.39
2022-07-25T06:17:44.193Z,23.36
2022-07-25T06:20:49.657Z,23.43
2022-07-25T06:23:53.479Z,23.30
2022-07-25T06:26:57.500Z,23.08
2022-07-25T06:30:00.827Z,23.78
2022-07-25T06:33:03.924Z,23.81
2022-07-25T06:36:07.664Z,23.93
2022-07-25T06:39:11.107Z,24.30
2022-07-25T06:46:53.855Z,24.02
2022-07-25T06:49:58.999Z,24.14
2022-07-25T06:53:02.799Z,24.32
2022-07-25T07:01:03.847Z,24.29
2022-07-25T07:04:33.667Z,24.67
2022-07-25T07:07:37.087Z,24.93
2022-07-25T07:10:40.822Z,25.12
2022-07-25T07:13:44.947Z,25.29
2022-07-25T07:16:48.110Z,25.05
2022-07-25T07:19:53.597Z,25.38
2022-07-25T07:23:45.160Z,25.56
2022-07-25T07:26:55.665Z,25.43
2022-07-25T07:34:19.000Z,25.67
2022-07-25T07:37:22.815Z,26.15
2022-07-25T07:40:29.165Z,26.10
2022-07-25T07:43:46.584Z,26.49
2022-07-25T07:46:50.589Z,26.58
2022-07-25T07:49:59.946Z,26.75
2022-07-25T07:58:21.006Z,26.71
2022-07-25T08:05:46.716Z,26.95
2022-07-25T08:39:05.757Z,27.74
2022-07-25T08:42:13.421Z,27.88
2022-07-25T08:45:21.515Z,28.15
2022-07-25T08:48:45.778Z,28.13
2022-07-25T08:51:54.025Z,27.97
2022-07-25T08:55:10.961Z,28.16
2022-07-25T08:58:19.006Z,27.95
2022-07-25T09:06:00.790Z,27.82
2022-07-25T09:16:59.590Z,27.90
2022-07-25T09:24:40.375Z,28.02
2022-07-25T09:27:43.719Z,27.88
2022-07-25T09:30:57.878Z,28.07
2022-07-25T09:34:08.671Z,28.19
2022-07-25T09:45:03.339Z,28.70
2022-07-25T09:48:43.963Z,28.87
2022-07-25T09:51:48.906Z,29.01
2022-07-25T09:54:55.476Z,28.80
2022-07-25T09:58:02.891Z,28.80
2022-07-25T10:01:42.951Z,29.04
2022-07-25T10:05:33.954Z,28.96
2022-07-25T10:08:42.338Z,29.10
2022-07-25T10:12:08.047Z,29.32
2022-07-25T10:15:14.543Z,29.78
2022-07-25T10:18:21.887Z,29.56
2022-07-25T10:21:29.773Z,29.33
2022-07-25T10:29:23.012Z,29.50
2022-07-25T10:32:35.532Z,29.64
2022-07-25T10:35:56.406Z,29.33
2022-07-25T10:43:20.079Z,29.89
2022-07-25T10:46:27.380Z,29.80
2022-07-25T10:50:13.471Z,29.73
2022-07-25T10:53:11.940Z,29.82
2022-07-25T10:56:16.305Z,30.29
2022-07-25T10:59:47.775Z,30.36
2022-07-25T11:03:08.235Z,30.05
2022-07-25T11:06:33.801Z,30.03
2022-07-25T11:09:57.090Z,29.80
2022-07-25T11:13:21.869Z,29.81
2022-07-25T11:16:29.608Z,30.38
2022-07-25T11:19:35.853Z,30.65
2022-07-25T11:22:40.013Z,30.43
2022-07-25T11:25:43.856Z,30.42
2022-07-25T11:28:49.415Z,30.24
2022-07-25T11:32:08.626Z,30.45
2022-07-25T11:35:13.489Z,30.69
2022-07-25T11:38:17.120Z,31.10
2022-07-25T11:41:29.967Z,31.28
2022-07-25T11:44:48.337Z,31.33
2022-07-25T11:48:08.581Z,31.35
2022-07-25T11:51:18.874Z,31.27
2022-07-25T11:54:22.830Z,31.53
2022-07-25T12:02:02.679Z,31.49
2022-07-25T12:05:13.121Z,31.73
2022-07-25T12:08:18.655Z,31.62
2022-07-25T12:11:29.609Z,31.92
2022-07-25T12:14:47.717Z,32.09
2022-07-25T12:17:52.549Z,32.38
2022-07-25T12:20:55.772Z,32.64
2022-07-25T12:23:59.173Z,32.34
2022-07-25T12:27:02.116Z,32.74
2022-07-25T12:30:10.122Z,32.68
2022-07-25T12:33:13.616Z,32.54
2022-07-25T12:36:18.716Z,33.10
2022-07-25T12:39:21.875Z,33.51
2022-07-25T12:42:26.065Z,33.37
2022-07-25T12:45:30.347Z,33.29
2022-07-25T12:48:37.471Z,33.25
2022-07-25T12:51:45.403Z,33.45
2022-07-25T12:54:51.039Z,34.17
2022-07-25T12:57:54.269Z,34.52
2022-07-25T13:01:01.895Z,33.52
2022-07-25T13:04:09.306Z,34.05
2022-07-25T13:07:16.370Z,34.26
2022-07-25T13:10:38.590Z,34.52
2022-07-25T13:13:42.791Z,36.86
2022-07-25T13:16:47.330Z,36.59
2022-07-25T13:19:50.563Z,36.53
2022-07-25T13:22:53.391Z,38.12
2022-07-25T13:25:56.690Z,36.50
2022-07-25T13:29:00.305Z,35.23
2022-07-25T13:32:04.104Z,36.51
2022-07-25T13:35:20.394Z,35.79
2022-07-25T13:38:24.411Z,35.75
2022-07-25T13:41:27.986Z,36.11
2022-07-25T13:48:28.441Z,35.15
2022-07-25T13:51:29.843Z,35.50
2022-07-25T13:54:35.379Z,36.80
2022-07-25T13:57:38.481Z,36.80
2022-07-25T14:00:42.262Z,36.01
2022-07-25T14:04:11.538Z,36.72
2022-07-25T14:07:35.781Z,37.57
2022-07-25T14:14:31.331Z,40.32
2022-07-25T14:17:39.112Z,39.42
2022-07-25T14:28:06.260Z,37.22
2022-07-25T14:35:48.801Z,37.09
2022-07-25T14:38:56.082Z,37.19
2022-07-25T14:41:59.617Z,38.82
2022-07-25T14:45:04.558Z,38.76
2022-07-25T14:48:08.882Z,39.24
2022-07-25T14:54:58.758Z,38.59
2022-07-25T14:58:05.617Z,40.24
2022-07-25T15:01:09.593Z,38.66
2022-07-25T15:04:33.362Z,39.04
2022-07-25T15:16:07.260Z,37.91
2022-07-25T15:19:18.242Z,40.13
2022-07-25T15:22:21.503Z,38.62
2022-07-25T15:26:00.116Z,42.74
2022-07-25T15:28:48.887Z,44.04
2022-07-25T15:32:03.616Z,40.98
2022-07-25T15:35:09.639Z,40.91
2022-07-25T15:38:14.090Z,41.94
2022-07-25T15:41:23.138Z,43.75
2022-07-25T15:44:26.433Z,40.41
2022-07-25T15:52:55.844Z,42.26
2022-07-25T15:55:44.198Z,42.83
2022-07-25T15:59:00.285Z,44.44
2022-07-25T16:02:08.480Z,43.38
2022-07-25T16:05:11.446Z,42.72
2022-07-25T16:08:18.279Z,45.34
2022-07-25T16:11:21.901Z,45.19
2022-07-25T16:14:26.440Z,45.44
2022-07-25T16:17:31.165Z,43.95
2022-07-25T16:20:34.224Z,45.04
2022-07-25T20:02:17.681Z,28.57
2022-07-25T20:05:28.525Z,28.49
2022-07-25T20:08:40.494Z,28.50
2022-07-25T20:12:09.111Z,28.46
2022-07-25T20:16:16.916Z,28.50
2022-07-25T20:24:14.206Z,28.37
2022-07-25T20:27:21.131Z,28.33
2022-07-25T20:31:04.756Z,28.27
2022-07-25T20:35:15.460Z,28.21
2022-07-25T20:39:03.929Z,28.06
2022-07-25T21:01:58.338Z,26.97
2022-07-25T21:05:02.364Z,26.81
2022-07-25T21:08:07.014Z,26.75
2022-07-25T21:11:45.996Z,26.61
2022-07-25T21:19:05.016Z,26.55
2022-07-25T21:22:10.664Z,26.49
2022-07-25T21:25:15.396Z,26.32
2022-07-25T21:28:19.110Z,26.12
2022-07-25T21:31:27.001Z,26.04
2022-07-25T21:34:30.947Z,25.97
2022-07-25T21:37:34.586Z,25.92
2022-07-25T21:40:40.611Z,25.74
2022-07-25T21:43:45.478Z,25.72
2022-07-25T21:46:54.958Z,25.57
2022-07-25T21:50:31.909Z,25.54
2022-07-25T21:53:42.545Z,25.38
2022-07-25T21:56:46.345Z,25.34
2022-07-25T21:59:50.410Z,25.26
2022-07-25T22:02:57.511Z,25.23
2022-07-25T22:06:03.251Z,25.16
2022-07-25T22:09:07.639Z,25.16
2022-07-25T22:12:11.415Z,25.21
2022-07-25T22:15:16.613Z,25.26
2022-07-25T22:18:23.821Z,25.31
2022-07-25T22:21:29.154Z,25.42
2022-07-25T22:24:46.750Z,25.47
2022-07-25T22:27:55.008Z,25.46
2022-07-25T22:30:59.103Z,25.32
2022-07-25T22:34:02.533Z,25.12
2022-07-25T22:37:06.060Z,24.87
2022-07-25T22:40:33.932Z,24.97
2022-07-25T22:43:57.278Z,25.00
2022-07-25T22:47:02.418Z,24.96
2022-07-25T22:50:09.911Z,24.84
2022-07-25T22:53:13.724Z,24.92
2022-07-25T22:56:17.697Z,24.90
2022-07-25T22:59:28.350Z,24.91
2022-07-25T23:02:35.180Z,24.80
2022-07-25T23:05:40.645Z,24.58
2022-07-25T23:08:50.498Z,24.50
2022-07-25T23:11:54.978Z,24.37
2022-07-25T23:15:19.013Z,24.25
2022-07-25T23:22:13.437Z,24.32
2022-07-25T23:25:16.836Z,24.17
2022-07-25T23:28:21.141Z,24.23
2022-07-25T23:31:24.435Z,24.21
2022-07-25T23:34:27.584Z,24.21
2022-07-25T23:37:31.529Z,24.23
2022-07-25T23:40:35.075Z,24.22
2022-07-25T23:43:56.038Z,24.20
2022-07-25T23:47:00.465Z,24.15
2022-07-25T23:50:06.261Z,24.14
2022-07-25T23:53:39.106Z,24.33
2022-07-25T23:57:23.362Z,24.38
